Time;durP1;ratioP1;P1;durP2;ratioP2;P2;SDS_P1;SDS_P2;PMS_P1;PMS_P2;Temp;Humidity;BMP_temperature;BMP_pressure;BME280_temperature;BME280_humidity;BME280_pressure;Samples;Min_cycle;Max_cycle;Signal;HPM_P1;HPM_P2
2022/09/12 00:00:25;;;;;;;0.25;0.20;;;;;;;27.60;nan;99135.63;5092052;28;20085;-55
2022/09/12 00:02:53;;;;;;;0.50;0.20;;;;;;;27.60;nan;99133.63;5091891;28;20044;-55
2022/09/12 00:05:20;;;;;;;0.40;0.20;;;;;;;27.61;nan;99140.03;5081954;28;20044;-58
2022/09/12 00:07:45;;;;;;;0.20;0.20;;;;;;;27.60;nan;99130.81;5091499;28;20048;-58
2022/09/12 00:10:10;;;;;;;0.22;0.20;;;;;;;27.63;nan;99126.34;5091000;28;20082;-55
2022/09/12 00:12:36;;;;;;;0.43;0.22;;;;;;;27.61;nan;99123.97;5091784;28;20051;-55
2022/09/12 00:15:02;;;;;;;0.30;0.30;;;;;;;27.60;nan;99132.81;5091632;28;20042;-58
2022/09/12 00:17:27;;;;;;;0.40;0.20;;;;;;;27.59;nan;99129.22;5092110;28;20419;-55
2022/09/12 00:19:52;;;;;;;0.25;0.20;;;;;;;27.61;nan;99142.84;5091861;28;20036;-58
2022/09/12 00:22:18;;;;;;;0.28;0.20;;;;;;;27.60;nan;99138.44;5091836;28;20043;-55
2022/09/12 00:24:43;;;;;;;0.10;0.10;;;;;;;27.60;nan;99133.63;5091595;28;20083;-55
2022/09/12 00:27:09;;;;;;;0.30;0.30;;;;;;;27.58;nan;99136.06;5091756;28;20450;-58
2022/09/12 00:29:34;;;;;;;0.35;0.20;;;;;;;27.59;nan;99146.09;5091911;28;20127;-55
2022/09/12 00:32:00;;;;;;;0.32;0.20;;;;;;;27.58;nan;99140.91;5091480;28;20431;-55
2022/09/12 00:34:25;;;;;;;0.20;0.20;;;;;;;27.61;nan;99145.66;5091771;28;20067;-58
2022/09/12 00:36:51;;;;;;;0.20;0.20;;;;;;;27.61;nan;99134.41;5091295;28;20040;-58
2022/09/12 00:39:16;;;;;;;0.13;0.13;;;;;;;27.59;nan;99146.09;5091730;28;20032;-55
2022/09/12 00:41:42;;;;;;;0.15;0.15;;;;;;;27.57;nan;99142.09;5091268;28;20058;-58
2022/09/12 00:44:10;;;;;;;0.75;0.35;;;;;;;27.58;nan;99135.28;5091645;28;20081;-55
2022/09/12 00:46:49;;;;;;;0.80;0.25;;;;;;;27.59;nan;99139.66;5091301;28;20134;-58
2022/09/12 00:49:36;;;;;;;0.60;0.20;;;;;;;27.56;nan;99138.50;5082114;28;20080;-55
2022/09/12 00:52:10;;;;;;;0.30;0.20;;;;;;;27.57;nan;99133.66;5091143;28;20036;-55
2022/09/12 00:54:47;;;;;;;0.20;0.20;;;;;;;27.57;nan;99133.66;5091233;28;20032;-55
2022/09/12 00:57:15;;;;;;;0.32;0.20;;;;;;;27.56;nan;99132.06;5105916;28;20052;-58
2022/09/12 00:59:46;;;;;;;0.20;0.20;;;;;;;27.51;nan;99130.56;5090859;28;20101;-58
2022/09/12 01:02:12;;;;;;;0.30;0.20;;;;;;;27.55;nan;99131.28;5091632;28;20040;-58
2022/09/12 01:04:40;;;;;;;0.35;0.28;;;;;;;27.57;nan;99136.47;5087059;28;20052;-55
2022/09/12 01:07:07;;;;;;;0.30;0.30;;;;;;;27.56;nan;99138.50;5089605;28;20040;-59
2022/09/12 01:09:32;;;;;;;0.13;0.13;;;;;;;27.57;nan;99128.03;5091396;28;20079;-56
2022/09/12 01:12:00;;;;;;;0.20;0.20;;;;;;;27.55;nan;99131.28;5091183;28;20074;-55
2022/09/12 01:14:27;;;;;;;0.20;0.20;;;;;;;27.54;nan;99128.91;5077419;28;20048;-58
2022/09/12 01:16:52;;;;;;;0.20;0.20;;;;;;;27.54;nan;99123.28;5091042;28;20043;-55
2022/09/12 01:19:57;;;;;;;0.20;0.20;;;;;;;27.53;nan;99136.56;5090579;28;20115;-58
2022/09/12 01:22:48;;;;;;;0.20;0.10;;;;;;;27.55;nan;99119.25;5086029;28;20499;-55
2022/09/12 01:25:55;;;;;;;0.20;0.10;;;;;;;27.53;nan;99124.53;5090797;28;20139;-55
2022/09/12 01:28:54;;;;;;;0.30;0.28;;;;;;;27.50;nan;99128.97;5079453;28;20081;-55
2022/09/12 01:31:48;;;;;;;0.30;0.30;;;;;;;27.51;nan;99124.97;5080469;28;20127;-58
2022/09/12 01:34:20;;;;;;;0.32;0.20;;;;;;;27.52;nan;99123.72;5075159;28;20097;-58
2022/09/12 01:37:03;;;;;;;0.10;0.10;;;;;;;27.50;nan;99114.91;5083197;28;20070;-58
2022/09/12 01:40:13;;;;;;;0.20;0.20;;;;;;;27.50;nan;99114.91;5088271;28;20052;-55
2022/09/12 01:43:04;;;;;;;0.17;0.17;;;;;;;27.50;nan;99114.13;5084290;28;20036;-55
2022/09/12 01:45:33;;;;;;;0.15;0.15;;;;;;;27.48;nan;99116.56;5087998;28;20035;-58
2022/09/12 01:48:13;;;;;;;0.40;0.30;;;;;;;27.51;nan;99118.53;5090714;28;20809;-55
2022/09/12 01:50:46;;;;;;;0.10;0.10;;;;;;;27.50;nan;99114.91;5089956;28;20052;-55
2022/09/12 01:53:11;;;;;;;;;;;;;;;27.54;nan;99114.88;5091034;28;20039;-55
2022/09/12 01:55:45;;;;;;;0.10;0.10;;;;;;;27.53;nan;99114.06;5089994;28;19920;-55
2022/09/12 01:58:24;;;;;;;0.10;0.10;;;;;;;27.49;nan;99110.53;5090372;28;20527;-57
2022/09/12 02:01:10;;;;;;;0.20;0.20;;;;;;;27.48;nan;99099.72;5088310;28;20047;-58
2022/09/12 02:03:43;;;;;;;0.10;0.00;;;;;;;27.49;nan;99095.69;5090551;28;20806;-55
2022/09/12 02:06:17;;;;;;;0.25;0.20;;;;;;;27.47;nan;99095.31;5090150;28;20043;-58
2022/09/12 02:09:17;;;;;;;0.10;0.10;;;;;;;27.48;nan;99100.50;5090533;28;20052;-55
2022/09/12 02:11:43;;;;;;;0.38;0.20;;;;;;;27.45;nan;99098.56;5071364;28;20051;-57
2022/09/12 02:14:15;;;;;;;0.20;0.10;;;;;;;27.47;nan;99103.75;5089702;28;20036;-58
2022/09/12 02:16:48;;;;;;;0.45;0.30;;;;;;;27.46;nan;99116.22;5089644;28;20048;-55
2022/09/12 02:19:19;;;;;;;0.32;0.13;;;;;;;27.45;nan;99112.63;5089940;28;20066;-57
2022/09/12 02:21:52;;;;;;;0.15;0.15;;;;;;;27.45;nan;99112.63;5090240;28;20415;-58
2022/09/12 02:24:20;;;;;;;0.30;0.20;;;;;;;27.46;nan;99104.97;5090054;28;20048;-55
2022/09/12 02:27:12;;;;;;;0.35;0.10;;;;;;;27.47;nan;99107.34;5089780;28;20071;-58
2022/09/12 02:29:38;;;;;;;0.20;0.20;;;;;;;27.48;nan;99096.91;5089650;28;20032;-58
2022/09/12 02:32:09;;;;;;;0.35;0.20;;;;;;;27.46;nan;99099.34;5089104;28;20097;-58
2022/09/12 02:35:00;;;;;;;0.20;0.20;;;;;;;27.46;nan;99099.34;5088311;28;20165;-58
2022/09/12 02:38:03;;;;;;;0.32;0.20;;;;;;;27.42;nan;99105.81;5087409;28;20051;-58
2022/09/12 02:40:30;;;;;;;0.30;0.20;;;;;;;27.44;nan;99102.59;5088683;28;20434;-58
2022/09/12 02:42:58;;;;;;;0.50;0.20;;;;;;;27.43;nan;99092.56;5089835;28;20048;-55
2022/09/12 02:45:24;;;;;;;0.47;0.20;;;;;;;27.45;nan;99097.78;5089317;28;20117;-58
2022/09/12 02:47:56;;;;;;;0.50;0.30;;;;;;;27.43;nan;99099.00;5089278;28;20423;-58
2022/09/12 02:50:21;;;;;;;0.35;0.20;;;;;;;27.40;nan;99099.06;5089509;28;20102;-58
2022/09/12 02:52:47;;;;;;;0.75;0.30;;;;;;;27.42;nan;99091.78;5089333;28;20496;-55
2022/09/12 02:55:13;;;;;;;0.10;0.10;;;;;;;27.42;nan;99096.59;5089166;28;20040;-55
2022/09/12 02:57:38;;;;;;;0.20;0.20;;;;;;;27.41;nan;99101.41;5089390;28;20050;-58
2022/09/12 03:00:05;;;;;;;0.20;0.20;;;;;;;27.41;nan;99100.63;5089454;28;20079;-57
2022/09/12 03:02:43;;;;;;;0.57;0.17;;;;;;;27.40;nan;99094.22;5088987;28;20043;-55
2022/09/12 03:05:38;;;;;;;0.10;0.10;;;;;;;27.40;nan;99094.22;5089549;28;20595;-58
2022/09/12 03:08:31;;;;;;;0.32;0.20;;;;;;;27.40;nan;99090.63;5075720;28;20113;-55
2022/09/12 03:11:11;;;;;;;0.20;0.10;;;;;;;27.39;nan;99095.44;5088709;28;20071;-55
2022/09/12 03:13:48;;;;;;;0.10;0.10;;;;;;;27.37;nan;99083.84;5089636;28;20051;-55
2022/09/12 03:16:55;;;;;;;0.20;0.10;;;;;;;27.39;nan;99089.84;5088987;28;20511;-55
2022/09/12 03:19:40;;;;;;;0.10;0.10;;;;;;;27.38;nan;99088.25;5026381;28;20462;-58
2022/09/12 03:22:18;;;;;;;0.43;0.28;;;;;;;27.37;nan;99086.66;4995755;28;20037;-55
2022/09/12 03:24:50;;;;;;;0.20;0.20;;;;;;;27.39;nan;99098.25;5022399;28;20054;-58
2022/09/12 03:27:22;;;;;;;0.20;0.20;;;;;;;27.37;nan;99095.09;5026926;28;20064;-58
2022/09/12 03:29:49;;;;;;;0.43;0.00;;;;;;;27.37;nan;99097.91;5025305;28;20057;-55
2022/09/12 03:32:15;;;;;;;0.10;0.10;;;;;;;27.37;nan;99097.91;5026772;28;20034;-55
2022/09/12 03:34:40;;;;;;;0.10;0.10;;;;;;;27.37;nan;99097.09;5025919;28;20060;-58
2022/09/12 03:37:05;;;;;;;0.10;0.10;;;;;;;27.36;nan;99101.94;5026869;28;20136;-58
2022/09/12 03:39:32;;;;;;;0.38;0.20;;;;;;;27.37;nan;99100.72;5013279;28;20123;-58
2022/09/12 03:41:57;;;;;;;0.25;0.20;;;;;;;27.37;nan;99097.91;5023400;28;20116;-55
2022/09/12 03:44:23;;;;;;;0.10;0.10;;;;;;;27.37;nan;99103.53;5025081;28;20124;-55
2022/09/12 03:46:49;;;;;;;0.10;0.10;;;;;;;27.37;nan;99097.91;5024752;28;20122;-58
2022/09/12 03:49:15;;;;;;;0.20;0.20;;;;;;;27.36;nan;99099.13;5025042;28;20521;-55
2022/09/12 03:51:41;;;;;;;0.20;0.20;;;;;;;27.36;nan;99098.31;5024483;28;20555;-55
2022/09/12 03:54:07;;;;;;;0.30;0.15;;;;;;;27.38;nan;99098.69;5036297;28;20040;-55
2022/09/12 03:56:33;;;;;;;0.10;0.10;;;;;;;27.36;nan;99101.94;5088688;28;20373;-55
2022/09/12 03:58:58;;;;;;;0.22;0.22;;;;;;;27.36;nan;99101.94;5088285;28;20107;-55
2022/09/12 04:01:24;;;;;;;0.10;0.10;;;;;;;27.37;nan;99103.53;5088952;28;20374;-55
2022/09/12 04:03:51;;;;;;;0.22;0.15;;;;;;;27.35;nan;99103.13;5088362;28;20040;-58
2022/09/12 04:06:19;;;;;;;0.10;0.10;;;;;;;27.33;nan;99102.78;5088409;28;20060;-58
2022/09/12 04:08:51;;;;;;;0.20;0.20;;;;;;;27.33;nan;99091.53;5074127;28;20109;-55
2022/09/12 04:11:18;;;;;;;0.10;0.10;;;;;;;27.33;nan;99097.16;5088833;28;20102;-55
2022/09/12 04:13:45;;;;;;;0.30;0.20;;;;;;;27.31;nan;99088.38;5088331;28;20043;-58
2022/09/12 04:16:11;;;;;;;0.20;0.20;;;;;;;27.34;nan;99103.56;5088434;28;20032;-55
2022/09/12 04:18:37;;;;;;;0.05;0.05;;;;;;;27.31;nan;99112.84;5088438;28;20125;-55
2022/09/12 04:21:15;;;;;;;0.20;0.20;;;;;;;27.32;nan;99112.41;5088171;28;20075;-55
2022/09/12 04:23:41;;;;;;;0.20;0.20;;;;;;;27.33;nan;99110.41;5082783;28;20138;-55
2022/09/12 04:26:07;;;;;;;0.20;0.20;;;;;;;27.30;nan;99114.06;5091764;28;20040;-55
2022/09/12 04:28:33;;;;;;;0.10;0.10;;;;;;;27.32;nan;99108.81;5091484;28;20040;-58
2022/09/12 04:31:06;;;;;;;0.10;0.10;;;;;;;27.32;nan;99112.41;5091426;28;20044;-55
2022/09/12 04:33:32;;;;;;;0.10;0.10;;;;;;;27.30;nan;99106.44;5091920;28;20044;-55
2022/09/12 04:36:10;;;;;;;0.20;0.20;;;;;;;27.30;nan;99102.84;5081473;28;20044;-55
2022/09/12 04:38:36;;;;;;;0.20;0.20;;;;;;;27.30;nan;99100.84;5091022;28;20131;-58
2022/09/12 04:41:12;;;;;;;0.30;0.20;;;;;;;27.32;nan;99095.56;5091510;28;20151;-55
2022/09/12 04:43:38;;;;;;;0.10;0.10;;;;;;;27.28;nan;99094.81;5091188;28;20048;-58
2022/09/12 04:46:09;;;;;;;0.10;0.10;;;;;;;27.28;nan;99100.44;5091297;28;20054;-55
2022/09/12 04:48:35;;;;;;;0.10;0.10;;;;;;;27.30;nan;99095.22;5091109;28;20074;-58
2022/09/12 04:51:15;;;;;;;0.10;0.10;;;;;;;27.28;nan;99097.63;5091395;28;20122;-55
2022/09/12 04:53:42;;;;;;;0.10;0.10;;;;;;;27.31;nan;99099.59;5090001;28;20048;-55
2022/09/12 04:56:10;;;;;;;0.17;0.17;;;;;;;27.31;nan;99110.84;5091020;28;20071;-55
2022/09/12 04:58:37;;;;;;;0.10;0.10;;;;;;;27.32;nan;99109.63;5091051;28;20048;-55
2022/09/12 05:01:07;;;;;;;0.43;0.22;;;;;;;27.33;nan;99111.19;5091219;28;20127;-55
2022/09/12 05:03:33;;;;;;;0.10;0.10;;;;;;;27.35;nan;99107.94;5090980;28;20048;-55
2022/09/12 05:06:02;;;;;;;0.20;0.20;;;;;;;27.36;nan;99106.72;5091065;28;20158;-58
2022/09/12 05:08:28;;;;;;;0.10;0.10;;;;;;;27.36;nan;99115.97;5090954;28;20032;-55
2022/09/12 05:10:54;;;;;;;0.15;0.10;;;;;;;27.36;nan;99113.16;5091406;28;20506;-58
2022/09/12 05:13:19;;;;;;;0.10;0.10;;;;;;;27.33;nan;99111.19;5091045;28;20479;-55
2022/09/12 05:15:56;;;;;;;0.25;0.17;;;;;;;27.36;nan;99118.78;5091206;28;20123;-58
2022/09/12 05:18:22;;;;;;;2.17;0.13;;;;;;;27.37;nan;99119.56;5088027;28;20055;-58
2022/09/12 05:20:47;;;;;;;0.52;0.25;;;;;;;27.39;nan;99125.56;5091006;28;20044;-58
2022/09/12 05:23:12;;;;;;;0.30;0.30;;;;;;;27.39;nan;99122.75;5090698;28;20486;-55
2022/09/12 05:25:38;;;;;;;1.98;0.50;;;;;;;27.38;nan;99112.72;5090589;28;20052;-58
2022/09/12 05:28:03;;;;;;;4.22;0.40;;;;;;;27.47;nan;99124.22;5090836;28;20085;-55
2022/09/12 05:30:28;;;;;;;5.90;0.30;;;;;;;27.45;nan;99125.88;5090841;28;20131;-58
2022/09/12 05:32:55;;;;;;;2.72;0.30;;;;;;;27.48;nan;99131.41;5090576;28;20400;-57
2022/09/12 05:35:20;;;;;;;3.05;0.30;;;;;;;27.49;nan;99135.00;5089572;28;20051;-57
2022/09/12 05:37:45;;;;;;;2.97;0.40;;;;;;;27.49;nan;99135.00;5091103;28;20419;-58
2022/09/12 05:40:14;;;;;;;3.60;0.40;;;;;;;27.52;nan;99134.97;5090422;28;20087;-58
2022/09/12 05:42:40;;;;;;;3.28;0.20;;;;;;;27.51;nan;99130.56;5088992;28;20070;-58
2022/09/12 05:45:05;;;;;;;1.88;0.40;;;;;;;27.52;nan;99137.78;5090236;28;20415;-55
2022/09/12 05:47:31;;;;;;;2.45;0.22;;;;;;;27.51;nan;99129.78;5090204;28;20040;-58
2022/09/12 05:49:57;;;;;;;2.13;0.30;;;;;;;27.49;nan;99124.56;5090439;28;20124;-58
2022/09/12 05:52:23;;;;;;;1.75;0.20;;;;;;;27.51;nan;99138.22;5090526;28;20052;-58
2022/09/12 05:54:48;;;;;;;0.73;0.20;;;;;;;27.50;nan;99131.78;5090224;28;20040;-55
2022/09/12 05:57:14;;;;;;;1.10;0.30;;;;;;;27.51;nan;99141.81;5090600;28;20523;-58
2022/09/12 05:59:39;;;;;;;0.73;0.20;;;;;;;27.55;nan;99147.34;5090422;28;20048;-54
2022/09/12 06:02:05;;;;;;;1.15;0.20;;;;;;;27.52;nan;99148.22;5089881;28;20040;-55
2022/09/12 06:04:30;;;;;;;0.25;0.20;;;;;;;27.41;nan;99159.63;5090138;28;20040;-55
2022/09/12 06:06:56;;;;;;;0.13;0.10;;;;;;;27.33;nan;99150.50;5090025;28;20036;-55
2022/09/12 06:09:24;;;;;;;0.95;0.22;;;;;;;27.26;nan;99150.63;5090002;28;20430;-55
2022/09/12 06:11:50;;;;;;;0.20;0.10;;;;;;;27.23;nan;99142.28;5089828;28;20055;-57
2022/09/12 06:14:18;;;;;;;0.28;0.20;;;;;;;27.18;nan;99134.31;5090186;28;20426;-54
2022/09/12 06:16:45;;;;;;;0.55;0.30;;;;;;;27.19;nan;99142.31;5090042;28;20491;-58
2022/09/12 06:19:15;;;;;;;0.50;0.20;;;;;;;27.15;nan;99133.19;5089841;28;20040;-55
2022/09/12 06:21:40;;;;;;;0.73;0.20;;;;;;;27.18;nan;99140.72;5090244;28;20527;-55
2022/09/12 06:24:06;;;;;;;2.08;0.38;;;;;;;27.15;nan;99136.78;5089567;28;20040;-55
2022/09/12 06:26:32;;;;;;;0.43;0.15;;;;;;;27.13;nan;99132.78;5089233;28;20519;-57
2022/09/12 06:28:59;;;;;;;0.17;0.17;;;;;;;27.11;nan;99136.03;5089676;28;20040;-57
2022/09/12 06:31:33;;;;;;;0.55;0.15;;;;;;;27.10;nan;99137.25;5089963;28;20052;-57
2022/09/12 06:34:02;;;;;;;0.40;0.30;;;;;;;27.13;nan;99132.78;5085668;28;20046;-58
2022/09/12 06:36:33;;;;;;;0.57;0.28;;;;;;;27.13;nan;99132.78;5088392;28;20040;-57
2022/09/12 06:39:01;;;;;;;0.47;0.20;;;;;;;27.10;nan;99140.06;5089631;28;20056;-55
2022/09/12 06:41:28;;;;;;;0.10;0.10;;;;;;;27.15;nan;99142.38;5089308;28;20579;-55
2022/09/12 06:43:54;;;;;;;1.50;0.30;;;;;;;27.14;nan;99135.16;5089904;28;20052;-55
2022/09/12 06:46:20;;;;;;;1.17;0.20;;;;;;;27.10;nan;99140.06;5088866;28;20105;-55
2022/09/12 06:48:45;;;;;;;0.40;0.30;;;;;;;27.12;nan;99136.81;5089473;28;20090;-58
2022/09/12 06:51:13;;;;;;;0.65;0.20;;;;;;;27.14;nan;99134.38;5094155;28;20480;-59
2022/09/12 06:53:39;;;;;;;1.23;0.15;;;;;;;27.11;nan;99129.63;5086879;28;20082;-56
2022/09/12 06:56:09;;;;;;;0.22;0.20;;;;;;;27.09;nan;99129.25;5082039;28;20052;-59
2022/09/12 06:58:35;;;;;;;0.32;0.30;;;;;;;27.11;nan;99129.63;5078135;28;20130;-59
2022/09/12 07:01:05;;;;;;;0.32;0.20;;;;;;;27.11;nan;99129.63;5079360;28;20038;-56
2022/09/12 07:03:31;;;;;;;0.25;0.22;;;;;;;27.12;nan;99128.38;5077988;28;20052;-57
2022/09/12 07:05:57;;;;;;;0.32;0.25;;;;;;;27.17;nan;99121.50;5074760;28;20165;-59
2022/09/12 07:08:22;;;;;;;0.40;0.20;;;;;;;27.21;nan;99130.66;5077248;28;20036;-59
2022/09/12 07:10:48;;;;;;;0.82;0.28;;;;;;;27.23;nan;99115.00;5079808;28;20039;-56
2022/09/12 07:13:13;;;;;;;0.20;0.20;;;;;;;27.25;nan;99125.78;5079516;28;20048;-56
2022/09/12 07:15:39;;;;;;;0.77;0.38;;;;;;;27.27;nan;99126.16;5082894;28;20055;-55
2022/09/12 07:18:05;;;;;;;0.50;0.30;;;;;;;27.25;nan;99129.38;5083717;28;20035;-56
2022/09/12 07:20:34;;;;;;;0.20;0.20;;;;;;;27.29;nan;99129.31;5083148;28;20048;-55
2022/09/12 07:22:59;;;;;;;0.52;0.22;;;;;;;27.31;nan;99132.50;5086845;28;20043;-54
2022/09/12 07:25:25;;;;;;;0.20;0.20;;;;;;;27.31;nan;99127.69;5088414;28;20044;-54
2022/09/12 07:27:52;;;;;;;0.30;0.30;;;;;;;27.36;nan;99140.44;5086862;28;20521;-54
2022/09/12 07:30:17;;;;;;;0.20;0.20;;;;;;;27.32;nan;99128.47;5083817;28;20040;-54
2022/09/12 07:32:43;;;;;;;0.20;0.20;;;;;;;27.37;nan;99128.78;5079344;28;20517;-58
2022/09/12 07:35:08;;;;;;;0.40;0.30;;;;;;;27.36;nan;99132.00;5088002;28;20092;-56
2022/09/12 07:37:34;;;;;;;0.70;0.50;;;;;;;27.38;nan;99126.78;5084389;28;20047;-54
2022/09/12 07:39:59;;;;;;;0.20;0.20;;;;;;;27.39;nan;99117.91;5079800;28;20044;-58
2022/09/12 07:42:24;;;;;;;0.25;0.25;;;;;;;27.42;nan;99124.69;5079799;28;20104;-58
2022/09/12 07:44:51;;;;;;;0.15;0.15;;;;;;;27.37;nan;99103.53;5086196;28;20132;-55
2022/09/12 07:47:17;;;;;;;0.60;0.30;;;;;;;27.38;nan;99116.34;5081125;28;20457;-59
2022/09/12 07:49:43;;;;;;;0.55;0.30;;;;;;;27.40;nan;99113.09;5082426;28;20051;-56
2022/09/12 07:52:08;;;;;;;0.47;0.30;;;;;;;27.40;nan;99118.72;5077278;28;20421;-59
2022/09/12 07:54:33;;;;;;;0.38;0.32;;;;;;;27.40;nan;99122.31;5077712;28;20057;-57
2022/09/12 07:56:59;;;;;;;0.28;0.20;;;;;;;27.41;nan;99103.44;5083957;28;20036;-56
2022/09/12 07:59:26;;;;;;;0.25;0.25;;;;;;;27.47;nan;99115.00;5084614;28;20054;-57
2022/09/12 08:01:52;;;;;;;0.40;0.25;;;;;;;27.45;nan;99114.63;5087998;28;20044;-54
2022/09/12 08:04:18;;;;;;;0.30;0.22;;;;;;;27.50;nan;99116.94;5087495;28;20040;-56
2022/09/12 08:06:43;;;;;;;0.25;0.20;;;;;;;27.48;nan;99110.94;5088147;28;20052;-55
2022/09/12 08:09:11;;;;;;;0.20;0.20;;;;;;;27.42;nan;99108.63;5087452;28;20036;-55
2022/09/12 08:11:37;;;;;;;0.47;0.32;;;;;;;27.46;nan;99110.59;5087058;28;20055;-59
2022/09/12 08:14:04;;;;;;;0.80;0.57;;;;;;;27.48;nan;99113.75;5087826;28;20118;-56
2022/09/12 08:16:31;;;;;;;0.52;0.40;;;;;;;27.51;nan;99110.91;5087529;28;20052;-58
2022/09/12 08:18:57;;;;;;;0.80;0.45;;;;;;;27.53;nan;99113.28;5087988;28;20086;-55
2022/09/12 08:21:25;;;;;;;1.00;0.55;;;;;;;27.54;nan;99112.84;5084579;28;20167;-56
2022/09/12 08:23:55;;;;;;;0.70;0.40;;;;;;;27.53;nan;99113.28;5087408;28;20162;-56
2022/09/12 08:26:22;;;;;;;0.75;0.43;;;;;;;27.51;nan;99112.94;5088617;28;20097;-56
2022/09/12 08:28:48;;;;;;;0.75;0.50;;;;;;;27.50;nan;99111.31;5085910;28;20503;-56
2022/09/12 08:31:17;;;;;;;0.60;0.50;;;;;;;27.50;nan;99105.69;5089437;28;20067;-56
2022/09/12 08:33:43;;;;;;;0.90;0.60;;;;;;;27.56;nan;99107.59;5087319;28;20056;-58
2022/09/12 08:36:21;;;;;;;1.00;0.70;;;;;;;27.51;nan;99101.69;5090044;28;20450;-59
2022/09/12 08:38:48;;;;;;;1.10;0.65;;;;;;;27.52;nan;99106.88;5079893;28;20051;-58
2022/09/12 08:41:17;;;;;;;0.95;0.68;;;;;;;27.52;nan;99108.88;5088556;28;20354;-59
2022/09/12 08:44:11;;;;;;;0.95;0.57;;;;;;;27.55;nan;99102.41;5088106;28;20071;-59
2022/09/12 08:46:56;;;;;;;1.25;0.70;;;;;;;27.55;nan;99096.78;5080800;28;20105;-56
2022/09/12 08:49:47;;;;;;;0.80;0.60;;;;;;;27.56;nan;99096.34;5086515;28;20040;-58
2022/09/12 08:52:26;;;;;;;0.68;0.50;;;;;;;27.53;nan;99088.78;5055860;28;20051;-59
2022/09/12 08:54:55;;;;;;;0.82;0.52;;;;;;;27.58;nan;99095.94;5084823;28;20040;-59
2022/09/12 08:57:21;;;;;;;0.60;0.47;;;;;;;27.57;nan;99100.75;5080868;28;20079;-56
2022/09/12 08:59:47;;;;;;;0.95;0.60;;;;;;;27.57;nan;99097.94;5086619;28;20051;-59
2022/09/12 09:02:44;;;;;;;0.63;0.50;;;;;;;27.55;nan;99097.56;5084853;28;20032;-56
2022/09/12 09:05:40;;;;;;;0.63;0.50;;;;;;;27.58;nan;99088.31;5088165;28;20082;-59
2022/09/12 09:08:05;;;;;;;0.93;0.50;;;;;;;27.61;nan;99089.44;5084116;28;20032;-56
2022/09/12 09:10:38;;;;;;;0.67;0.37;;;;;;;27.63;nan;99084.19;5084376;28;20390;-59
2022/09/12 09:16:33;;;;;;;0.77;0.50;;;;;;;27.65;nan;99071.31;5071595;28;20051;-59
2022/09/12 09:19:08;;;;;;;0.80;0.50;;;;;;;27.66;nan;99080.53;5085824;28;20476;-59
2022/09/12 09:21:33;;;;;;;0.40;0.30;;;;;;;27.70;nan;99067.22;5084662;28;20048;-59
2022/09/12 09:24:13;;;;;;;0.65;0.45;;;;;;;27.67;nan;99065.25;5082849;28;20119;-56
2022/09/12 09:26:52;;;;;;;0.52;0.30;;;;;;;27.63;nan;99065.31;5083782;28;20058;-55
2022/09/12 09:29:25;;;;;;;0.40;0.40;;;;;;;27.60;nan;99062.59;5087223;28;20055;-56
2022/09/12 09:31:54;;;;;;;0.35;0.30;;;;;;;27.66;nan;99072.09;5082410;28;20131;-55
2022/09/12 09:34:28;;;;;;;0.60;0.40;;;;;;;27.65;nan;99060.06;5084356;28;20142;-55
2022/09/12 09:37:12;;;;;;;0.50;0.30;;;;;;;27.66;nan;99060.88;5086978;28;20036;-56
2022/09/12 09:40:15;;;;;;;0.30;0.30;;;;;;;27.66;nan;99058.84;5084417;28;20116;-59
2022/09/12 09:43:04;;;;;;;0.40;0.35;;;;;;;27.69;nan;99060.81;5084210;28;20048;-58
2022/09/12 09:45:30;;;;;;;0.65;0.47;;;;;;;27.68;nan;99050.00;5077577;28;20055;-59
2022/09/12 09:48:26;;;;;;;0.30;0.30;;;;;;;27.70;nan;99059.59;5086715;28;20123;-58
2022/09/12 09:50:52;;;;;;;0.65;0.45;;;;;;;27.72;nan;99053.56;5079600;28;20100;-58
2022/09/12 09:53:37;;;;;;;2.55;0.38;;;;;;;27.69;nan;99049.56;5086893;28;20044;-57
2022/09/12 09:56:10;;;;;;;0.30;0.30;;;;;;;27.73;nan;99055.13;5085600;28;20101;-58
2022/09/12 09:58:36;;;;;;;0.52;0.50;;;;;;;27.73;nan;99057.16;5084189;28;20048;-59
2022/09/12 10:01:05;;;;;;;1.05;0.40;;;;;;;27.75;nan;99041.44;5083002;28;20055;-55
2022/09/12 10:03:33;;;;;;;0.55;0.40;;;;;;;27.77;nan;99041.78;5077302;28;20139;-55
2022/09/12 10:06:25;;;;;;;0.30;0.30;;;;;;;27.80;nan;99040.94;5080373;28;20571;-55
2022/09/12 10:09:12;;;;;;;0.43;0.30;;;;;;;27.78;nan;99032.13;5078494;28;20101;-56
2022/09/12 10:11:38;;;;;;;0.40;0.32;;;;;;;27.80;nan;99023.28;5077784;28;20044;-61
2022/09/12 10:14:03;;;;;;;0.47;0.35;;;;;;;27.79;nan;99025.31;5085423;28;20472;-59
2022/09/12 10:16:46;;;;;;;0.57;0.40;;;;;;;27.79;nan;99028.13;5079113;28;20044;-59
2022/09/12 10:19:25;;;;;;;0.43;0.35;;;;;;;27.79;nan;99022.50;5080963;28;20129;-61
2022/09/12 10:21:54;;;;;;;2.08;0.40;;;;;;;27.78;nan;99020.09;5083953;28;20063;-61
2022/09/12 10:24:27;;;;;;;0.52;0.30;;;;;;;27.79;nan;99013.25;5087286;28;20134;-60
2022/09/12 10:26:57;;;;;;;0.22;0.20;;;;;;;27.78;nan;99015.28;5084011;28;20036;-60
2022/09/12 10:29:27;;;;;;;0.55;0.38;;;;;;;27.76;nan;99012.09;5083290;28;20056;-60
2022/09/12 10:31:56;;;;;;;0.40;0.30;;;;;;;27.78;nan;99004.03;5083981;28;20089;-60
2022/09/12 10:34:29;;;;;;;0.75;0.30;;;;;;;27.81;nan;99005.19;5086274;28;20131;-60
2022/09/12 10:37:16;;;;;;;0.52;0.30;;;;;;;27.80;nan;98998.78;5084068;28;21929;-60
2022/09/12 10:39:52;;;;;;;0.73;0.30;;;;;;;27.83;nan;98994.31;5086545;28;20104;-60
2022/09/12 10:42:56;;;;;;;0.20;0.20;;;;;;;27.82;nan;98996.31;5083962;28;20057;-60
2022/09/12 10:45:22;;;;;;;0.30;0.22;;;;;;;27.89;nan;98998.19;5087856;28;20078;-60
2022/09/12 10:47:48;;;;;;;0.30;0.20;;;;;;;27.83;nan;98989.47;5085560;28;20080;-61
2022/09/12 10:50:40;;;;;;;0.30;0.30;;;;;;;27.82;nan;98992.72;5082121;28;20055;-56
2022/09/12 10:53:29;;;;;;;0.30;0.30;;;;;;;27.85;nan;98981.41;5084985;28;20032;-56
2022/09/12 10:55:54;;;;;;;0.40;0.30;;;;;;;27.84;nan;98982.63;5084005;28;20049;-55
2022/09/12 10:58:39;;;;;;;0.40;0.30;;;;;;;27.83;nan;98983.84;5085035;28;20043;-60
2022/09/12 11:01:33;;;;;;;0.40;0.32;;;;;;;27.86;nan;98968.13;5084567;28;20340;-60
2022/09/12 11:04:11;;;;;;;0.60;0.35;;;;;;;27.89;nan;98975.72;5081020;28;20036;-60
2022/09/12 11:07:13;;;;;;;0.38;0.30;;;;;;;27.90;nan;98971.69;5083537;28;20059;-56
2022/09/12 11:09:51;;;;;;;0.40;0.32;;;;;;;27.93;nan;98970.78;5083226;28;20508;-56
2022/09/12 11:12:32;;;;;;;0.43;0.30;;;;;;;27.93;nan;98971.63;5081389;28;20051;-59
2022/09/12 11:15:15;;;;;;;0.60;0.40;;;;;;;27.91;nan;98962.00;5078197;28;20076;-56
2022/09/12 11:17:48;;;;;;;0.25;0.25;;;;;;;27.90;nan;98952.00;5080091;28;20518;-59
2022/09/12 11:20:51;;;;;;;0.30;0.30;;;;;;;27.92;nan;98955.94;5080707;28;20098;-59
2022/09/12 11:23:16;;;;;;;0.35;0.30;;;;;;;27.93;nan;98954.75;5081646;28;20090;-60
2022/09/12 11:25:50;;;;;;;0.93;0.50;;;;;;;27.95;nan;98951.50;5076196;28;20138;-56
2022/09/12 11:28:28;;;;;;;0.60;0.38;;;;;;;27.93;nan;98943.50;5061895;28;20036;-56
2022/09/12 11:31:02;;;;;;;0.22;0.22;;;;;;;27.96;nan;98950.25;5060072;28;20052;-56
2022/09/12 11:33:39;;;;;;;0.50;0.40;;;;;;;27.96;nan;98941.81;5063019;28;20048;-60
2022/09/12 11:36:18;;;;;;;0.38;0.30;;;;;;;27.95;nan;98951.50;5064340;28;20044;-60
2022/09/12 11:38:53;;;;;;;0.73;0.30;;;;;;;27.98;nan;98948.59;5078484;28;20063;-60
2022/09/12 11:41:30;;;;;;;0.60;0.40;;;;;;;27.97;nan;98944.19;5085135;28;20135;-56
2022/09/12 11:43:59;;;;;;;0.30;0.20;;;;;;;28.01;nan;98940.53;5087510;28;20028;-57
2022/09/12 11:46:38;;;;;;;0.45;0.25;;;;;;;27.98;nan;98945.00;5082287;28;20503;-60
2022/09/12 11:49:15;;;;;;;0.30;0.30;;;;;;;28.00;nan;98934.09;5086098;28;20048;-60
2022/09/12 11:51:47;;;;;;;0.82;0.47;;;;;;;27.99;nan;98938.13;5084678;28;20078;-56
2022/09/12 11:54:45;;;;;;;0.40;0.30;;;;;;;27.98;nan;98928.91;5088674;28;20415;-60
2022/09/12 11:57:15;;;;;;;0.30;0.30;;;;;;;28.04;nan;98919.97;5086043;28;20128;-60
2022/09/12 11:59:48;;;;;;;0.40;0.20;;;;;;;28.05;nan;98924.34;5088555;28;20186;-57
2022/09/12 12:02:24;;;;;;;0.30;0.30;;;;;;;28.03;nan;98924.81;5088509;28;20087;-56
2022/09/12 12:05:21;;;;;;;0.70;0.30;;;;;;;28.03;nan;98919.19;5087678;28;20059;-59
2022/09/12 12:07:51;;;;;;;0.60;0.30;;;;;;;28.03;nan;98913.56;5019142;28;20045;-59
2022/09/12 12:10:25;;;;;;;0.38;0.20;;;;;;;28.05;nan;98910.31;5024271;28;20048;-56
2022/09/12 12:12:53;;;;;;;0.38;0.25;;;;;;;28.10;nan;98907.78;5018665;28;20057;-55
2022/09/12 12:15:20;;;;;;;0.60;0.40;;;;;;;28.10;nan;98895.72;5024991;28;20050;-55
2022/09/12 12:18:03;;;;;;;0.70;0.40;;;;;;;28.10;nan;98904.97;5026039;28;20049;-58